Time;durP1;ratioP1;P1;durP2;ratioP2;P2;SDS_P1;SDS_P2;PMS_P1;PMS_P2;Temp;Humidity;BMP_temperature;BMP_pressure;BME280_temperature;BME280_humidity;BME280_pressure;Samples;Min_cycle;Max_cycle;Signal;HPM_P1;HPM_P2
2021/08/01 00:00:46;;;;;;;37.40;33.47;;;;;;;18.57;100.00;98442.63;2080515;28;20865;-77
2021/08/01 00:01:48;;;;;;;34.30;30.90;;;;;;;18.51;100.00;98433.28;2088610;28;20468;-76
2021/08/01 00:02:48;;;;;;;39.07;34.23;;;;;;;18.45;100.00;98439.38;2088796;28;20219;-76
2021/08/01 00:03:50;;;;;;;36.03;32.17;;;;;;;18.39;100.00;98433.47;2089020;28;20533;-76
2021/08/01 00:04:52;;;;;;;36.37;32.47;;;;;;;18.33;100.00;98443.03;2080558;28;20224;-77
2021/08/01 00:05:53;;;;;;;37.07;33.10;;;;;;;18.33;100.00;98448.44;2088217;28;20449;-77
2021/08/01 00:06:54;;;;;;;35.23;31.30;;;;;;;18.27;100.00;98441.78;2080469;28;20482;-76
2021/08/01 00:07:55;;;;;;;36.33;32.37;;;;;;;18.23;100.00;98446.34;2088682;28;20454;-76
2021/08/01 00:08:56;;;;;;;38.63;34.07;;;;;;;18.17;100.00;98445.09;2089306;28;20238;-78
2021/08/01 00:09:58;;;;;;;38.57;33.73;;;;;;;18.13;100.00;98447.72;2089417;28;20445;-77
2021/08/01 00:10:59;;;;;;;38.30;34.17;;;;;;;18.10;100.00;98445.75;2088851;28;20247;-77
2021/08/01 00:12:01;;;;;;;39.47;33.73;;;;;;;18.10;100.00;98451.16;2088718;28;20438;-77
2021/08/01 00:13:01;;;;;;;39.77;33.87;;;;;;;18.12;100.00;98450.78;2089495;28;20226;-76
2021/08/01 00:14:04;;;;;;;35.77;32.10;;;;;;;18.08;100.00;98446.13;2089458;28;20457;-77
2021/08/01 00:15:06;;;;;;;35.77;31.87;;;;;;;18.03;100.00;98449.13;2089507;28;20229;-77
2021/08/01 00:16:08;;;;;;;37.20;33.00;;;;;;;18.03;100.00;98451.81;2089056;28;20801;-76
2021/08/01 00:17:08;;;;;;;36.17;32.40;;;;;;;18.04;100.00;98453.38;2088550;28;20457;-76
2021/08/01 00:18:10;;;;;;;37.60;33.67;;;;;;;17.99;100.00;98455.59;2080641;28;20458;-76
2021/08/01 00:19:11;;;;;;;41.20;35.10;;;;;;;17.89;100.00;98451.56;2080654;28;20223;-77
2021/08/01 00:20:12;;;;;;;39.93;35.53;;;;;;;17.85;100.00;98461.53;2088879;28;20482;-76
2021/08/01 00:21:13;;;;;;;40.93;34.80;;;;;;;17.80;100.00;98451.00;2089458;28;20221;-75
2021/08/01 00:22:15;;;;;;;41.47;36.33;;;;;;;17.78;100.00;98456.00;2089490;28;20448;-76
2021/08/01 00:23:15;;;;;;;37.10;33.20;;;;;;;17.75;100.00;98468.28;2088489;28;20239;-75
2021/08/01 00:24:17;;;;;;;39.17;34.50;;;;;;;17.70;100.00;98470.50;2088668;28;20958;-75
2021/08/01 00:25:17;;;;;;;36.87;33.03;;;;;;;17.67;100.00;98466.56;2089382;28;20238;-76
2021/08/01 00:26:19;;;;;;;40.50;35.73;;;;;;;17.67;100.00;98471.19;2089310;28;20464;-75
2021/08/01 00:27:20;;;;;;;38.50;33.33;;;;;;;17.69;100.00;98472.38;2088539;28;20766;-76
2021/08/01 00:28:21;;;;;;;37.50;33.43;;;;;;;17.75;100.00;98473.69;2080572;28;20492;-76
2021/08/01 00:29:24;;;;;;;41.53;33.70;;;;;;;17.74;100.00;98474.81;2079859;28;20315;-75
2021/08/01 00:30:25;;;;;;;37.47;33.47;;;;;;;17.69;100.00;98468.91;2088551;28;20461;-75
2021/08/01 00:31:27;;;;;;;43.40;35.33;;;;;;;17.63;100.00;98473.81;2089352;28;20448;-75
2021/08/01 00:32:28;;;;;;;40.70;36.20;;;;;;;17.58;100.00;98468.72;2089303;28;20287;-75
2021/08/01 00:33:29;;;;;;;38.50;34.33;;;;;;;17.52;100.00;98457.41;2089421;28;20519;-75
2021/08/01 00:34:31;;;;;;;38.97;35.03;;;;;;;17.49;100.00;98457.38;2088493;28;20797;-75
2021/08/01 00:35:32;;;;;;;43.30;35.93;;;;;;;17.47;100.00;98460.41;2080458;28;20524;-75
2021/08/01 00:36:33;;;;;;;41.07;36.17;;;;;;;17.49;100.00;98460.06;2088377;28;20222;-75
2021/08/01 00:37:35;;;;;;;43.27;35.30;;;;;;;17.44;100.00;98461.13;2088677;28;20541;-75
2021/08/01 00:38:36;;;;;;;38.43;34.47;;;;;;;17.42;100.00;98460.69;2088466;28;20222;-76
2021/08/01 00:39:37;;;;;;;37.80;33.23;;;;;;;17.50;100.00;98457.00;2079908;28;20516;-75
2021/08/01 00:40:38;;;;;;;38.50;34.00;;;;;;;17.54;100.00;98459.75;2088524;28;20241;-75
2021/08/01 00:41:40;;;;;;;39.83;34.53;;;;;;;17.50;100.00;98462.41;2080419;28;20472;-76
2021/08/01 00:42:41;;;;;;;42.23;37.63;;;;;;;17.46;100.00;98468.84;2087909;28;20574;-76
2021/08/01 00:43:42;;;;;;;38.70;33.87;;;;;;;17.57;100.00;98469.06;2089323;28;20963;-76
2021/08/01 00:44:45;;;;;;;37.37;33.40;;;;;;;17.56;100.00;98462.91;2088474;28;20871;-76
2021/08/01 00:45:46;;;;;;;37.10;33.23;;;;;;;17.55;100.00;98468.63;2080299;28;20446;-76
2021/08/01 00:46:47;;;;;;;38.80;33.70;;;;;;;17.61;100.00;98461.81;2088561;28;20484;-76
2021/08/01 00:47:49;;;;;;;44.67;35.53;;;;;;;17.56;100.00;98462.13;2089209;28;20472;-76
2021/08/01 00:48:50;;;;;;;40.30;34.37;;;;;;;17.63;100.00;98464.94;2089184;28;20230;-76
2021/08/01 00:49:52;;;;;;;37.47;33.60;;;;;;;17.62;100.00;98466.84;2088217;28;20485;-76
2021/08/01 00:50:54;;;;;;;38.40;34.47;;;;;;;17.57;100.00;98467.16;2088056;28;20495;-76
2021/08/01 00:51:57;;;;;;;41.27;34.67;;;;;;;17.49;100.00;98463.53;2089217;28;20827;-76
2021/08/01 00:53:00;;;;;;;41.17;35.83;;;;;;;17.43;100.00;98467.66;2088410;28;21004;-76
2021/08/01 00:54:02;;;;;;;39.63;35.30;;;;;;;17.39;100.00;98461.41;2080246;28;20466;-76
2021/08/01 00:55:04;;;;;;;39.43;35.13;;;;;;;17.34;100.00;98461.69;2088271;28;20567;-76
2021/08/01 00:56:06;;;;;;;49.70;37.30;;;;;;;17.29;100.00;98464.69;2080278;28;20473;-76
2021/08/01 00:57:06;;;;;;;43.43;36.57;;;;;;;17.26;100.00;98459.97;2088083;28;20782;-76
2021/08/01 00:58:08;;;;;;;42.03;36.80;;;;;;;17.24;100.00;98463.03;2088302;28;20471;-76
2021/08/01 00:59:09;;;;;;;44.07;38.23;;;;;;;17.22;100.00;98461.84;2088447;28;20305;-76
2021/08/01 01:00:20;;;;;;;39.93;35.77;;;;;;;17.29;100.00;98462.00;2089156;28;20457;-76
2021/08/01 01:01:26;;;;;;;41.47;37.03;;;;;;;17.27;100.00;98463.47;2088187;28;20301;-76
2021/08/01 01:02:34;;;;;;;43.00;35.37;;;;;;;17.23;100.00;98458.78;2080446;28;20528;-76
2021/08/01 01:03:42;;;;;;;42.87;36.10;;;;;;;17.20;100.00;98470.28;2081064;28;20516;-76
2021/08/01 01:04:49;;;;;;;41.23;35.80;;;;;;;17.19;100.00;98467.91;2080771;28;20446;-76
2021/08/01 01:05:59;;;;;;;45.47;38.43;;;;;;;17.18;100.00;98469.06;2080654;28;20500;-76
2021/08/01 01:07:06;;;;;;;47.20;37.60;;;;;;;17.18;100.00;98461.75;2088459;28;20472;-76
2021/08/01 01:08:16;;;;;;;48.67;38.80;;;;;;;17.22;100.00;98467.22;2081610;28;20439;-76
2021/08/01 01:09:41;;;;;;;41.43;35.70;;;;;;;17.31;100.00;98470.50;2080125;28;20458;-76
2021/08/01 01:11:00;;;;;;;38.50;34.47;;;;;;;17.44;100.00;98468.44;2086485;28;21005;-76
2021/08/01 01:12:12;;;;;;;38.13;33.93;;;;;;;17.42;100.00;98463.38;2087964;28;20445;-76
2021/08/01 01:13:15;;;;;;;39.57;34.50;;;;;;;17.48;100.00;98458.50;2088225;28;20507;-76
2021/08/01 01:14:21;;;;;;;40.63;36.20;;;;;;;17.43;100.00;98456.84;2080407;28;20496;-76
2021/08/01 01:15:24;;;;;;;39.20;35.17;;;;;;;17.41;100.00;98458.34;2080562;28;20486;-76
2021/08/01 01:16:26;;;;;;;40.40;34.97;;;;;;;17.38;100.00;98459.84;2079857;28;20455;-76
2021/08/01 01:17:29;;;;;;;50.13;37.40;;;;;;;17.35;100.00;98465.16;2080060;28;20556;-76
2021/08/01 01:18:34;;;;;;;39.37;35.07;;;;;;;17.37;100.00;98469.06;2080160;28;20454;-76
2021/08/01 01:20:02;;;;;;;39.83;34.77;;;;;;;17.55;100.00;98468.63;2088334;28;20813;-76
2021/08/01 01:21:24;;;;;;;38.37;33.83;;;;;;;17.74;100.00;98471.34;2083403;28;20450;-76
2021/08/01 01:22:32;;;;;;;39.40;34.33;;;;;;;17.85;100.00;98472.31;2075193;28;20490;-76
2021/08/01 01:24:06;;;;;;;40.40;36.03;;;;;;;17.86;100.00;98473.88;2084010;28;20532;-76
2021/08/01 01:25:19;;;;;;;39.83;34.03;;;;;;;17.78;100.00;98461.38;2087540;28;20911;-76
2021/08/01 01:26:27;;;;;;;41.03;36.63;;;;;;;17.71;100.00;98461.25;2080150;28;20469;-76
2021/08/01 01:27:35;;;;;;;41.13;35.03;;;;;;;17.74;100.00;98455.94;2086634;28;20446;-75
2021/08/01 01:28:39;;;;;;;45.87;37.00;;;;;;;17.77;100.00;98462.53;2088016;28;20521;-76
2021/08/01 01:29:45;;;;;;;38.60;34.43;;;;;;;17.81;100.00;98452.59;2080916;28;21274;-75
2021/08/01 01:30:53;;;;;;;43.27;35.40;;;;;;;17.76;100.00;98447.47;2080796;28;20457;-76
2021/08/01 01:32:00;;;;;;;43.53;36.00;;;;;;;17.76;100.00;98448.25;2086043;28;20846;-76
2021/08/01 01:33:07;;;;;;;40.40;36.00;;;;;;;17.74;100.00;98449.78;2088249;28;20804;-76
2021/08/01 01:34:12;;;;;;;40.23;35.33;;;;;;;17.74;100.00;98452.47;2087715;28;21027;-76
2021/08/01 01:35:16;;;;;;;42.63;35.17;;;;;;;17.63;100.00;98452.22;2088152;28;20530;-76
2021/08/01 01:36:26;;;;;;;40.43;35.97;;;;;;;17.56;100.00;98449.41;2088066;28;20449;-76
2021/08/01 01:37:28;;;;;;;38.27;34.10;;;;;;;17.61;100.00;98451.03;2087714;28;20496;-75
2021/08/01 01:38:29;;;;;;;40.27;35.23;;;;;;;17.65;100.00;98452.66;2088280;28;20485;-75
2021/08/01 01:39:52;;;;;;;41.87;35.03;;;;;;;17.72;100.00;98452.03;2079907;28;20442;-76
2021/08/01 01:41:13;;;;;;;39.50;35.20;;;;;;;17.75;100.00;98441.31;2081381;28;20466;-76
2021/08/01 01:42:27;;;;;;;39.07;34.30;;;;;;;17.72;100.00;98450.13;2086950;28;20541;-76
2021/08/01 01:43:33;;;;;;;39.37;35.03;;;;;;;17.69;100.00;98441.91;2087948;28;20449;-76
2021/08/01 01:44:38;;;;;;;40.97;35.57;;;;;;;17.67;100.00;98441.50;2079801;28;20454;-76
2021/08/01 01:45:40;;;;;;;39.73;34.47;;;;;;;17.75;100.00;98437.84;2079714;28;20462;-76
2021/08/01 01:46:42;;;;;;;39.87;34.70;;;;;;;17.91;100.00;98440.44;2079596;28;20492;-76
2021/08/01 01:47:43;;;;;;;41.00;35.33;;;;;;;17.98;100.00;98438.63;2079793;28;20442;-76
2021/08/01 01:48:45;;;;;;;40.87;33.90;;;;;;;17.92;100.00;98434.66;2088111;28;20441;-76
2021/08/01 01:49:48;;;;;;;38.50;34.27;;;;;;;17.87;100.00;98428.78;2087920;28;20473;-76
2021/08/01 01:50:54;;;;;;;39.83;34.87;;;;;;;17.86;100.00;98430.69;2087886;28;20476;-76
2021/08/01 01:51:56;;;;;;;37.13;33.13;;;;;;;17.86;100.00;98429.91;2087960;28;20464;-76
2021/08/01 01:52:59;;;;;;;36.13;32.37;;;;;;;17.85;100.00;98421.03;2087948;28;20450;-76
2021/08/01 01:54:00;;;;;;;37.27;33.20;;;;;;;17.88;100.00;98419.53;2087658;28;20450;-76
2021/08/01 01:55:04;;;;;;;37.77;33.50;;;;;;;17.91;100.00;98416.91;2079512;28;20529;-76
2021/08/01 01:56:05;;;;;;;37.83;33.73;;;;;;;17.98;100.00;98421.63;2088030;28;20445;-76
2021/08/01 01:57:07;;;;;;;40.97;34.47;;;;;;;17.94;100.00;98416.19;2088812;28;20473;-76
2021/08/01 01:58:11;;;;;;;38.93;34.07;;;;;;;17.93;100.00;98417.31;2087375;28;20227;-76
2021/08/01 01:59:16;;;;;;;37.93;33.83;;;;;;;17.94;100.00;98418.09;2080044;28;20864;-76
2021/08/01 02:00:17;;;;;;;39.07;33.90;;;;;;;17.95;100.00;98420.44;2079742;28;20488;-76
2021/08/01 02:01:18;;;;;;;38.53;34.33;;;;;;;18.07;100.00;98414.88;2087917;28;20503;-76
2021/08/01 02:02:20;;;;;;;37.80;33.63;;;;;;;18.06;100.00;98417.91;2088530;28;20245;-76
2021/08/01 02:03:25;;;;;;;36.50;32.70;;;;;;;17.96;100.00;98421.22;2081619;28;20587;-76
2021/08/01 02:04:44;;;;;;;39.63;33.83;;;;;;;17.85;100.00;98412.94;2087434;28;20867;-76
2021/08/01 02:06:04;;;;;;;38.83;32.83;;;;;;;17.70;100.00;98411.13;2080636;28;20457;-76
2021/08/01 02:07:39;;;;;;;35.53;31.77;;;;;;;17.72;100.00;98415.06;2083191;28;20544;-76
2021/08/01 02:09:09;;;;;;;37.20;33.27;;;;;;;17.69;100.00;98417.63;2080130;28;20458;-76
2021/08/01 02:10:23;;;;;;;36.87;32.80;;;;;;;17.62;100.00;98420.22;2087528;28;20457;-76
2021/08/01 02:11:31;;;;;;;36.90;32.80;;;;;;;17.58;100.00;98413.97;2087572;28;20457;-75
2021/08/01 02:12:48;;;;;;;34.53;30.93;;;;;;;17.53;100.00;98413.13;2081493;28;20452;-76
2021/08/01 02:14:01;;;;;;;34.53;31.20;;;;;;;17.64;100.00;98426.03;2080924;28;20998;-76
2021/08/01 02:15:04;;;;;;;35.00;31.40;;;;;;;17.57;100.00;98412.44;2080385;28;21578;-76
2021/08/01 02:16:08;;;;;;;34.57;31.17;;;;;;;17.56;100.00;98421.66;2088059;28;20457;-76
2021/08/01 02:17:11;;;;;;;35.00;31.23;;;;;;;17.55;100.00;98417.38;2087571;28;20555;-76
2021/08/01 02:18:18;;;;;;;34.20;30.63;;;;;;;17.45;100.00;98421.44;2087791;28;20488;-76
2021/08/01 02:19:21;;;;;;;35.77;31.97;;;;;;;17.39;100.00;98429.06;2087896;28;20890;-76
2021/08/01 02:20:29;;;;;;;36.63;32.57;;;;;;;17.36;100.00;98420.88;2080048;28;20454;-76
2021/08/01 02:21:52;;;;;;;45.67;37.03;;;;;;;17.32;100.00;98422.75;2081310;28;20457;-76
2021/08/01 02:22:57;;;;;;;42.00;36.77;;;;;;;17.34;100.00;98421.25;2079489;28;20460;-75
2021/08/01 02:23:59;;;;;;;50.97;36.13;;;;;;;17.35;100.00;98425.50;2079517;28;20980;-76
2021/08/01 02:25:01;;;;;;;41.60;34.77;;;;;;;17.34;100.00;98425.84;2079503;28;20454;-75
2021/08/01 02:26:03;;;;;;;50.70;35.03;;;;;;;17.31;100.00;98411.19;2074987;28;21003;-76
2021/08/01 02:27:06;;;;;;;39.13;33.67;;;;;;;17.33;100.00;98417.00;2071943;28;20457;-76
2021/08/01 02:28:07;;;;;;;39.40;33.60;;;;;;;17.34;100.00;98418.53;2075300;28;20485;-76
2021/08/01 02:29:10;;;;;;;37.60;33.50;;;;;;;17.31;100.00;98408.47;2075517;28;20474;-76
2021/08/01 02:30:12;;;;;;;42.03;33.67;;;;;;;17.30;100.00;98408.84;2080775;28;20455;-75
2021/08/01 02:31:15;;;;;;;37.27;33.40;;;;;;;17.29;100.00;98404.56;2074896;28;20506;-76
2021/08/01 02:32:17;;;;;;;38.03;34.03;;;;;;;17.27;100.00;98404.91;2080374;28;20517;-75
2021/08/01 02:33:19;;;;;;;41.03;34.30;;;;;;;17.27;100.00;98407.63;2079603;28;20541;-75
2021/08/01 02:34:21;;;;;;;37.50;33.50;;;;;;;17.23;100.00;98412.19;2079537;28;20495;-75
2021/08/01 02:35:24;;;;;;;38.60;33.37;;;;;;;17.22;100.00;98402.53;2081365;28;20497;-75
2021/08/01 02:36:25;;;;;;;37.53;32.90;;;;;;;17.22;100.00;98406.00;2079446;28;20464;-76
2021/08/01 02:37:28;;;;;;;39.33;34.40;;;;;;;17.20;100.00;98405.59;2071476;28;20470;-76
2021/08/01 02:38:30;;;;;;;37.03;33.13;;;;;;;17.21;100.00;98406.38;2079524;28;20442;-76
2021/08/01 02:39:34;;;;;;;37.90;33.33;;;;;;;17.22;100.00;98402.53;2079479;28;20943;-76
2021/08/01 02:40:36;;;;;;;38.60;33.13;;;;;;;17.20;100.00;98404.78;2079495;28;20466;-76
2021/08/01 02:41:39;;;;;;;39.57;32.23;;;;;;;17.21;100.00;98407.16;2075309;28;20541;-76
2021/08/01 02:42:46;;;;;;;36.93;33.03;;;;;;;17.20;100.00;98402.88;2080417;28;20473;-76
2021/08/01 02:43:49;;;;;;;37.17;32.70;;;;;;;17.22;100.00;98410.63;2087896;28;20453;-76
2021/08/01 02:44:51;;;;;;;36.37;32.03;;;;;;;17.22;100.00;98402.53;2088423;28;20456;-75
2021/08/01 02:45:54;;;;;;;36.77;32.67;;;;;;;17.23;100.00;98406.78;2088044;28;20842;-76
2021/08/01 02:46:56;;;;;;;37.17;33.10;;;;;;;17.27;100.00;98404.91;2087978;28;20454;-76
2021/08/01 02:47:59;;;;;;;36.53;32.57;;;;;;;17.27;100.00;98414.94;2079923;28;20910;-76
2021/08/01 02:49:02;;;;;;;38.03;32.73;;;;;;;17.26;100.00;98416.84;2079646;28;20462;-76
2021/08/01 02:50:05;;;;;;;36.07;31.73;;;;;;;17.26;100.00;98414.16;2080075;28;20473;-76
2021/08/01 02:51:07;;;;;;;35.60;31.90;;;;;;;17.26;100.00;98414.16;2087304;28;20445;-76
2021/08/01 02:52:12;;;;;;;36.93;32.93;;;;;;;17.28;100.00;98411.88;2087692;28;20452;-76
2021/08/01 02:53:15;;;;;;;35.90;32.10;;;;;;;17.28;100.00;98411.88;2087760;28;20442;-76
2021/08/01 02:54:19;;;;;;;36.53;32.30;;;;;;;17.27;100.00;98415.72;2088485;28;20441;-76
2021/08/01 02:55:20;;;;;;;36.37;31.87;;;;;;;17.26;100.00;98408.75;2088509;28;20460;-76
2021/08/01 02:56:24;;;;;;;37.03;33.03;;;;;;;17.26;100.00;98411.44;2088080;28;20503;-76
2021/08/01 02:57:30;;;;;;;37.17;33.07;;;;;;;17.24;100.00;98414.50;2088529;28;20456;-76
2021/08/01 02:58:33;;;;;;;36.03;32.27;;;;;;;17.22;100.00;98416.00;2088446;28;20481;-76
2021/08/01 02:59:35;;;;;;;37.00;32.97;;;;;;;17.24;100.00;98409.13;2087689;28;20450;-76
2021/08/01 03:00:41;;;;;;;36.50;32.70;;;;;;;17.31;100.00;98410.41;2087454;28;20480;-76
2021/08/01 03:01:44;;;;;;;36.17;31.63;;;;;;;17.37;100.00;98415.13;2087533;28;20449;-76
2021/08/01 03:02:48;;;;;;;38.23;32.30;;;;;;;17.41;100.00;98410.59;2079683;28;20894;-76
2021/08/01 03:03:50;;;;;;;38.53;32.00;;;;;;;17.36;100.00;98408.19;2079836;28;20984;-76
2021/08/01 03:04:52;;;;;;;36.27;31.90;;;;;;;17.36;100.00;98408.19;2087550;28;20861;-76
2021/08/01 03:05:53;;;;;;;35.83;32.17;;;;;;;17.37;100.00;98409.72;2080138;28;20243;-76
2021/08/01 03:06:56;;;;;;;34.60;30.77;;;;;;;17.44;100.00;98414.47;2080967;28;20916;-76
2021/08/01 03:07:58;;;;;;;34.03;30.30;;;;;;;17.42;100.00;98409.44;2081230;28;20956;-76
2021/08/01 03:09:02;;;;;;;34.20;30.47;;;;;;;17.41;100.00;98407.91;2080995;28;20454;-76
2021/08/01 03:10:05;;;;;;;34.07;30.47;;;;;;;17.43;100.00;98405.63;2081222;28;20477;-76
2021/08/01 03:11:08;;;;;;;33.00;29.73;;;;;;;17.39;100.00;98407.47;2080854;28;20562;-76
2021/08/01 03:12:10;;;;;;;36.17;29.03;;;;;;;17.45;100.00;98405.25;2081101;28;20454;-76
2021/08/01 03:13:14;;;;;;;32.00;28.97;;;;;;;17.36;100.00;98392.00;2089297;28;20445;-76
2021/08/01 03:14:15;;;;;;;33.10;29.57;;;;;;;17.39;100.00;98390.53;2089843;28;20456;-76
2021/08/01 03:15:18;;;;;;;33.00;29.87;;;;;;;17.40;100.00;98387.47;2089143;28;21105;-76
2021/08/01 03:16:19;;;;;;;33.03;29.57;;;;;;;17.45;100.00;98384.47;2081104;28;20450;-75
2021/08/01 03:17:20;;;;;;;31.87;28.63;;;;;;;17.53;100.00;98380.75;2080831;28;20959;-76
2021/08/01 03:18:21;;;;;;;31.93;28.63;;;;;;;17.50;100.00;98376.09;2089222;28;20218;-75
2021/08/01 03:19:23;;;;;;;32.30;29.30;;;;;;;17.48;100.00;98367.56;2088827;28;20475;-75
2021/08/01 03:20:23;;;;;;;31.93;28.83;;;;;;;17.47;100.00;98360.63;2089917;28;20734;-75
2021/08/01 03:21:54;;;;;;;33.63;29.13;;;;;;;17.46;100.00;98350.16;2087932;28;20930;-75
2021/08/01 03:22:59;;;;;;;32.87;29.20;;;;;;;17.45;100.00;98357.47;2088901;28;20936;-75
2021/08/01 03:24:12;;;;;;;32.47;29.17;;;;;;;17.41;100.00;98364.75;2081819;28;20468;-75
2021/08/01 03:25:28;;;;;;;32.30;28.90;;;;;;;17.37;100.00;98371.97;2076244;28;20787;-75
2021/08/01 03:26:30;;;;;;;31.43;28.37;;;;;;;17.39;100.00;98380.50;2080864;28;20461;-75
2021/08/01 03:27:32;;;;;;;31.00;27.90;;;;;;;17.40;100.00;98382.06;2072822;28;20447;-76
2021/08/01 03:28:33;;;;;;;31.70;28.70;;;;;;;17.43;100.00;98377.88;2080887;28;20988;-75
2021/08/01 03:29:34;;;;;;;31.00;27.83;;;;;;;17.37;100.00;98377.38;2080878;28;20224;-76
2021/08/01 03:30:38;;;;;;;30.53;27.43;;;;;;;17.43;100.00;98381.34;2086713;28;20538;-75
2021/08/01 03:31:39;;;;;;;30.90;27.90;;;;;;;17.39;100.00;98377.03;2088932;28;21005;-75
2021/08/01 03:32:42;;;;;;;30.93;27.77;;;;;;;17.39;100.00;98380.50;2088947;28;20477;-76
2021/08/01 03:33:43;;;;;;;31.03;28.03;;;;;;;17.36;100.00;98375.03;2089032;28;20465;-76
2021/08/01 03:34:45;;;;;;;31.37;28.03;;;;;;;17.36;100.00;98377.72;2089128;28;20446;-76
2021/08/01 03:35:46;;;;;;;30.73;27.67;;;;;;;17.36;100.00;98378.50;2089817;28;20461;-76
2021/08/01 03:37:01;;;;;;;31.47;28.00;;;;;;;17.37;100.00;98381.97;2088419;28;20453;-76
2021/08/01 03:38:20;;;;;;;31.50;27.53;;;;;;;17.36;100.00;98375.81;2089044;28;20524;-76
2021/08/01 03:39:54;;;;;;;30.50;27.50;;;;;;;17.35;100.00;98368.09;2087879;28;20962;-76
2021/08/01 03:40:57;;;;;;;31.10;27.80;;;;;;;17.34;100.00;98369.22;2086382;28;20442;-76
2021/08/01 03:42:01;;;;;;;31.47;28.33;;;;;;;17.38;100.00;98373.56;2080961;28;20533;-76
2021/08/01 03:43:05;;;;;;;29.63;26.93;;;;;;;17.47;100.00;98374.13;2081131;28;20963;-76
2021/08/01 03:44:07;;;;;;;31.13;27.70;;;;;;;17.52;100.00;98368.41;2080490;28;20869;-76
2021/08/01 03:45:09;;;;;;;30.87;27.77;;;;;;;17.66;100.00;98377.91;2089075;28;20465;-76
2021/08/01 03:46:11;;;;;;;33.23;27.17;;;;;;;17.65;100.00;98371.72;2089671;28;20536;-76
2021/08/01 03:47:11;;;;;;;32.33;28.47;;;;;;;17.62;100.00;98371.66;2089764;28;20459;-76
2021/08/01 03:48:13;;;;;;;30.70;27.70;;;;;;;17.59;100.00;98370.47;2088796;28;20985;-76
2021/08/01 03:49:13;;;;;;;32.77;28.47;;;;;;;17.57;100.00;98369.25;2089024;28;20243;-75
2021/08/01 03:50:15;;;;;;;31.43;28.27;;;;;;;17.53;100.00;98363.78;2089515;28;20449;-76
2021/08/01 03:51:16;;;;;;;31.23;28.23;;;;;;;17.51;100.00;98361.47;2089687;28;20219;-76
2021/08/01 03:52:17;;;;;;;31.00;28.00;;;;;;;17.48;100.00;98364.88;2089697;28;20449;-76
2021/08/01 03:53:18;;;;;;;31.10;27.70;;;;;;;17.55;100.00;98355.34;2089699;28;20219;-76
2021/08/01 03:54:20;;;;;;;30.20;27.03;;;;;;;17.69;100.00;98353.66;2089684;28;20452;-76
2021/08/01 03:55:20;;;;;;;29.50;26.63;;;;;;;17.93;100.00;98357.16;2089097;28;20246;-76
2021/08/01 03:56:23;;;;;;;29.00;26.13;;;;;;;17.96;100.00;98349.13;2089012;28;20457;-76
2021/08/01 03:57:25;;;;;;;29.73;26.70;;;;;;;18.01;100.00;98345.34;2081803;28;20234;-76
2021/08/01 03:58:25;;;;;;;30.73;27.63;;;;;;;18.06;100.00;98343.09;2080466;28;20474;-76
2021/08/01 03:59:27;;;;;;;31.93;27.70;;;;;;;18.02;100.00;98336.88;2080614;28;20538;-75
2021/08/01 04:00:27;;;;;;;30.87;27.63;;;;;;;17.97;100.00;98333.69;2081393;28;20227;-76
2021/08/01 04:01:29;;;;;;;32.20;28.80;;;;;;;17.95;100.00;98334.06;2081350;28;20446;-76
2021/08/01 04:02:30;;;;;;;32.40;27.77;;;;;;;17.92;100.00;98331.31;2081284;28;20609;-76
2021/08/01 04:03:31;;;;;;;30.03;27.23;;;;;;;17.86;100.00;98333.53;2081087;28;20438;-76
2021/08/01 04:04:32;;;;;;;33.57;28.30;;;;;;;17.85;100.00;98325.81;2080344;28;20236;-75
2021/08/01 04:05:33;;;;;;;30.67;27.40;;;;;;;17.93;100.00;98316.69;2080553;28;20455;-75
2021/08/01 04:06:34;;;;;;;30.50;27.60;;;;;;;17.90;100.00;98320.91;2081421;28;20587;-76
2021/08/01 04:07:36;;;;;;;30.83;27.83;;;;;;;17.97;100.00;98315.59;2081319;28;20533;-76
2021/08/01 04:08:36;;;;;;;32.33;28.03;;;;;;;18.00;100.00;98317.56;2086362;28;20632;-76
2021/08/01 04:09:38;;;;;;;30.97;27.80;;;;;;;17.98;100.00;98317.16;2088836;28;20457;-76
2021/08/01 04:10:39;;;;;;;31.20;28.20;;;;;;;17.93;100.00;98317.47;2088886;28;20246;-76
2021/08/01 04:11:44;;;;;;;32.47;29.27;;;;;;;17.90;100.00;98318.19;2088805;28;20481;-76
2021/08/01 04:12:44;;;;;;;31.60;28.33;;;;;;;17.87;100.00;98318.91;2088656;28;20575;-75
2021/08/01 04:13:46;;;;;;;30.93;27.67;;;;;;;17.99;100.00;98323.34;2080438;28;20450;-76
2021/08/01 04:14:46;;;;;;;30.90;27.80;;;;;;;18.02;100.00;98328.78;2080048;28;20250;-74
2021/08/01 04:15:48;;;;;;;30.70;27.60;;;;;;;18.08;100.00;98332.75;2088696;28;20456;-75
2021/08/01 04:16:49;;;;;;;31.13;28.03;;;;;;;18.11;100.00;98330.44;2088409;28;20226;-75
2021/08/01 04:17:50;;;;;;;31.50;28.40;;;;;;;18.08;100.00;98335.44;2088190;28;20971;-74
2021/08/01 04:18:51;;;;;;;31.43;28.50;;;;;;;18.04;100.00;98333.81;2089389;28;20596;-75
2021/08/01 04:19:52;;;;;;;32.13;28.80;;;;;;;18.00;100.00;98344.56;2088204;28;20488;-75
2021/08/01 04:20:53;;;;;;;31.80;28.60;;;;;;;17.97;100.00;98339.09;2088681;28;20746;-75
2021/08/01 04:21:55;;;;;;;30.97;28.07;;;;;;;17.93;100.00;98338.28;2089400;28;20877;-74
2021/08/01 04:22:56;;;;;;;31.20;27.93;;;;;;;17.92;100.00;98340.19;2088799;28;20226;-75
2021/08/01 04:23:57;;;;;;;30.20;27.40;;;;;;;17.93;100.00;98339.06;2080667;28;20535;-75
2021/08/01 04:24:58;;;;;;;32.17;28.90;;;;;;;17.93;100.00;98336.34;2088653;28;21030;-75
2021/08/01 04:25:59;;;;;;;30.07;27.47;;;;;;;17.98;100.00;98336.06;2088631;28;20802;-75
2021/08/01 04:27:01;;;;;;;30.03;27.40;;;;;;;18.19;100.00;98345.63;2088652;28;20225;-75
2021/08/01 04:28:03;;;;;;;31.93;28.53;;;;;;;18.38;100.00;98337.38;2088501;28;20460;-75
2021/08/01 04:29:05;;;;;;;31.63;28.20;;;;;;;18.45;100.00;98326.69;2080490;28;20481;-75
2021/08/01 04:30:08;;;;;;;29.23;26.63;;;;;;;18.50;100.00;98326.34;2088601;28;20531;-75
2021/08/01 04:31:09;;;;;;;30.20;27.43;;;;;;;18.51;100.00;98329.84;2088106;28;20588;-76
2021/08/01 04:32:10;;;;;;;30.97;27.80;;;;;;;18.51;100.00;98336.03;2088562;28;20540;-75
2021/08/01 04:33:11;;;;;;;29.50;26.80;;;;;;;18.55;100.00;98330.66;2089212;28;20218;-75
2021/08/01 04:34:16;;;;;;;29.77;27.07;;;;;;;18.66;100.00;98333.53;2089240;28;20922;-75
2021/08/01 04:35:16;;;;;;;30.03;27.13;;;;;;;18.71;100.00;98334.00;2089320;28;20221;-75
2021/08/01 04:36:18;;;;;;;31.33;28.17;;;;;;;18.77;100.00;98318.25;2089322;28;20472;-74
2021/08/01 04:37:18;;;;;;;30.57;27.40;;;;;;;18.82;100.00;98313.28;2089202;28;20230;-74
2021/08/01 04:38:20;;;;;;;30.03;27.03;;;;;;;18.89;100.00;98318.78;2089312;28;20429;-75
2021/08/01 04:39:21;;;;;;;30.53;27.53;;;;;;;18.89;100.00;98318.00;2089202;28;20230;-75
2021/08/01 04:40:22;;;;;;;30.20;27.30;;;;;;;18.89;100.00;98320.69;2088015;28;20461;-74
2021/08/01 04:41:23;;;;;;;30.53;27.73;;;;;;;18.86;100.00;98324.16;2088554;28;20712;-75
2021/08/01 04:42:27;;;;;;;30.73;27.63;;;;;;;18.80;100.00;98322.91;2088476;28;20465;-75
2021/08/01 04:43:28;;;;;;;29.73;26.97;;;;;;;18.75;100.00;98336.72;2080544;28;20863;-75
2021/08/01 04:44:30;;;;;;;30.00;26.93;;;;;;;18.76;100.00;98341.00;2080197;28;20438;-76
2021/08/01 04:45:30;;;;;;;30.20;27.30;;;;;;;18.75;100.00;98340.22;2088518;28;20313;-75
2021/08/01 04:46:32;;;;;;;30.37;27.47;;;;;;;18.78;100.00;98338.72;2089197;28;20461;-75
2021/08/01 04:47:33;;;;;;;30.73;27.63;;;;;;;18.81;100.00;98341.47;2089216;28;20230;-75
2021/08/01 04:48:34;;;;;;;30.10;27.03;;;;;;;18.86;100.00;98337.66;2089097;28;20931;-75
2021/08/01 04:49:35;;;;;;;31.23;28.03;;;;;;;18.88;100.00;98332.66;2088550;28;20235;-75
2021/08/01 04:50:36;;;;;;;31.10;27.83;;;;;;;18.93;100.00;98335.78;2088424;28;20437;-75
2021/08/01 04:51:37;;;;;;;30.97;27.87;;;;;;;19.04;100.00;98335.94;2088735;28;20237;-75